Time;durP1;ratioP1;P1;durP2;ratioP2;P2;SDS_P1;SDS_P2;PMS_P1;PMS_P2;Temp;Humidity;BMP_temperature;BMP_pressure;BME280_temperature;BME280_humidity;BME280_pressure;Samples;Min_cycle;Max_cycle;Signal;HPM_P1;HPM_P2
2022/02/24 00:04:17;;;;;;;0.10;0.00;;;1.00;92.40;;;;;;21058021;28;20368;-58
2022/02/24 00:14:19;;;;;;;1.08;0.10;;;1.10;92.40;;;;;;21068723;28;20040;-59
2022/02/24 00:24:23;;;;;;;0.60;0.10;;;1.10;92.40;;;;;;21074350;28;20324;-55
2022/02/24 00:34:25;;;;;;;0.22;0.00;;;1.20;93.60;;;;;;21056604;28;20028;-59
2022/02/24 00:44:27;;;;;;;0.10;0.00;;;1.20;93.20;;;;;;21055558;28;20039;-58
2022/02/24 00:54:30;;;;;;;0.03;0.00;;;1.20;93.40;;;;;;21071311;28;20060;-57
2022/02/24 01:04:32;;;;;;;0.00;0.00;;;1.20;93.40;;;;;;21070731;28;20036;-59
2022/02/24 01:14:36;;;;;;;0.20;0.05;;;1.00;93.10;;;;;;21069357;28;20036;-58
2022/02/24 01:24:39;;;;;;;0.20;0.00;;;0.90;93.00;;;;;;21068825;28;20036;-59
2022/02/24 01:34:42;;;;;;;0.57;0.10;;;0.80;93.40;;;;;;21068151;28;20058;-56
2022/02/24 01:44:46;;;;;;;0.30;0.00;;;0.60;94.20;;;;;;21067701;28;20036;-58
2022/02/24 01:54:49;;;;;;;0.00;0.00;;;0.60;93.50;;;;;;21066463;28;20449;-58
2022/02/24 02:04:52;;;;;;;0.20;0.00;;;0.70;94.30;;;;;;21066045;28;20563;-59
2022/02/24 02:14:54;;;;;;;0.10;0.10;;;0.60;94.50;;;;;;21066531;28;20483;-58
2022/02/24 02:25:03;;;;;;;0.20;0.10;;;0.60;94.50;;;;;;21047687;28;20031;-57
2022/02/24 02:35:06;;;;;;;0.45;0.05;;;0.50;94.40;;;;;;21062813;28;20025;-59
2022/02/24 02:45:09;;;;;;;0.20;0.10;;;0.50;94.40;;;;;;21063669;28;20032;-59
2022/02/24 02:55:12;;;;;;;1.25;0.20;;;0.60;93.90;;;;;;21061527;28;20044;-59
2022/02/24 03:05:15;;;;;;;0.40;0.15;;;0.50;94.70;;;;;;21061232;28;20044;-59
2022/02/24 03:15:18;;;;;;;0.43;0.10;;;0.60;95.60;;;;;;21060159;28;20043;-60
2022/02/24 03:25:22;;;;;;;0.93;0.10;;;0.40;95.50;;;;;;21059450;28;20443;-57
2022/02/24 03:35:24;;;;;;;0.20;0.10;;;0.30;95.10;;;;;;21061012;28;20054;-55
2022/02/24 03:45:26;;;;;;;0.40;0.10;;;0.30;95.50;;;;;;21057606;28;20097;-59
2022/02/24 03:55:29;;;;;;;0.75;0.22;;;0.20;96.50;;;;;;21057817;28;20450;-59
2022/02/24 04:05:31;;;;;;;0.93;0.30;;;0.10;97.00;;;;;;21057547;28;20093;-57
2022/02/24 04:15:36;;;;;;;0.50;0.28;;;0.20;97.10;;;;;;21056960;28;20044;-58
2022/02/24 04:25:39;;;;;;;0.30;0.10;;;0.20;96.70;;;;;;21040441;28;20032;-58
2022/02/24 04:35:42;;;;;;;0.35;0.10;;;0.20;96.90;;;;;;21056380;28;20085;-57
2022/02/24 04:45:44;;;;;;;0.25;0.20;;;0.20;97.90;;;;;;21056622;28;20109;-57
2022/02/24 04:55:47;;;;;;;1.45;0.70;;;0.30;97.10;;;;;;21058767;28;20052;-55
2022/02/24 05:05:49;;;;;;;1.77;0.38;;;0.20;97.00;;;;;;21053894;28;20032;-59
2022/02/24 05:15:54;;;;;;;2.13;0.60;;;0.10;97.70;;;;;;21069977;28;20119;-57
2022/02/24 05:25:58;;;;;;;1.42;0.60;;;0.00;98.10;;;;;;21068942;28;20475;-58
2022/02/24 05:36:02;;;;;;;1.35;0.80;;;0.10;97.90;;;;;;21067833;28;20087;-59
2022/02/24 05:46:05;;;;;;;1.27;0.75;;;0.10;97.80;;;;;;21067311;28;20061;-59
2022/02/24 05:56:07;;;;;;;1.77;0.95;;;0.10;98.40;;;;;;21065187;28;20148;-57
2022/02/24 06:06:10;;;;;;;3.28;1.70;;;0.10;98.40;;;;;;21066083;28;20040;-58
2022/02/24 06:16:12;;;;;;;3.13;1.63;;;0.10;98.00;;;;;;21063694;28;20036;-59
2022/02/24 06:26:19;;;;;;;4.60;2.33;;;0.20;98.60;;;;;;21063865;28;20032;-57
2022/02/24 06:36:23;;;;;;;2.55;1.60;;;0.30;98.30;;;;;;21062304;28;20491;-59
2022/02/24 06:46:26;;;;;;;7.93;2.75;;;0.70;98.70;;;;;;21063470;28;20380;-59
2022/02/24 06:56:28;;;;;;;3.83;2.00;;;1.00;98.50;;;;;;21061281;28;20353;-59
2022/02/24 07:06:31;;;;;;;4.65;2.70;;;1.50;98.00;;;;;;21059731;28;20040;-58
2022/02/24 07:16:35;;;;;;;6.25;3.50;;;1.80;98.30;;;;;;21060253;28;20544;-59
2022/02/24 07:26:39;;;;;;;7.70;3.92;;;2.40;98.00;;;;;;21059989;28;20105;-57
2022/02/24 07:36:43;;;;;;;7.90;4.28;;;3.00;97.50;;;;;;21058672;28;20409;-58
2022/02/24 07:46:45;;;;;;;7.72;4.25;;;3.50;96.20;;;;;;21058434;28;20028;-59
2022/02/24 07:56:52;;;;;;;6.28;3.67;;;4.20;94.70;;;;;;21058455;28;20071;-59
2022/02/24 08:06:55;;;;;;;7.68;4.10;;;5.30;92.30;;;;;;21057797;28;20040;-59
2022/02/24 08:16:57;;;;;;;7.82;4.28;;;6.10;90.90;;;;;;21057272;28;20032;-58
2022/02/24 08:27:01;;;;;;;7.03;3.88;;;6.40;90.10;;;;;;21058043;28;20066;-58
2022/02/24 08:37:06;;;;;;;6.57;3.80;;;6.80;88.00;;;;;;21071505;28;20085;-56
2022/02/24 08:47:08;;;;;;;8.60;3.60;;;7.20;86.20;;;;;;21073243;28;20328;-59
2022/02/24 08:57:10;;;;;;;7.15;4.07;;;7.60;88.30;;;;;;21071034;28;20571;-59
2022/02/24 09:07:13;;;;;;;8.88;4.70;;;8.10;86.10;;;;;;21070950;28;20094;-58
2022/02/24 09:17:15;;;;;;;8.95;4.60;;;8.40;86.40;;;;;;21070446;28;20085;-60
2022/02/24 09:27:18;;;;;;;7.47;4.43;;;8.80;86.50;;;;;;21069605;28;20036;-59
2022/02/24 09:37:21;;;;;;;8.38;4.28;;;8.90;89.00;;;;;;21067992;28;20036;-60
2022/02/24 09:47:26;;;;;;;9.95;5.40;;;9.10;84.80;;;;;;21049452;28;20070;-59
2022/02/24 09:57:29;;;;;;;8.43;5.05;;;9.10;87.40;;;;;;21066456;28;20055;-58
2022/02/24 10:07:35;;;;;;;9.35;5.30;;;8.90;85.60;;;;;;21066007;28;20483;-59
2022/02/24 10:17:38;;;;;;;9.80;5.38;;;8.80;87.20;;;;;;21065061;28;20387;-58
2022/02/24 10:27:44;;;;;;;11.32;5.45;;;8.90;86.80;;;;;;21064183;28;20417;-59
2022/02/24 10:38:00;;;;;;;12.10;6.28;;;9.50;86.60;;;;;;21062879;28;20100;-59
2022/02/24 10:48:06;;;;;;;10.85;6.22;;;10.10;84.70;;;;;;21061987;28;20032;-59
2022/02/24 10:58:08;;;;;;;10.02;5.90;;;10.40;83.50;;;;;;21061083;28;20055;-60
2022/02/24 11:08:12;;;;;;;10.48;5.70;;;11.20;85.30;;;;;;21044194;28;20104;-59
2022/02/24 11:18:16;;;;;;;10.77;6.32;;;11.80;83.30;;;;;;21043478;28;20550;-60
2022/02/24 11:28:22;;;;;;;15.23;7.00;;;11.10;83.40;;;;;;21059551;28;20036;-60
2022/02/24 11:38:25;;;;;;;13.98;7.88;;;10.80;85.50;;;;;;21042419;28;20396;-59
2022/02/24 11:48:36;;;;;;;11.70;6.80;;;10.60;85.40;;;;;;21058388;28;20449;-59
2022/02/24 11:58:45;;;;;;;12.77;7.03;;;10.40;86.20;;;;;;20974970;28;20472;-60
2022/02/24 12:09:13;;;;;;;15.27;8.63;;;10.30;86.90;;;;;;20982828;28;20033;-58
2022/02/24 12:19:35;;;;;;;14.60;8.73;;;10.50;84.80;;;;;;20971001;28;20102;-58
2022/02/24 12:29:42;;;;;;;13.88;7.55;;;10.70;85.10;;;;;;20989739;28;20041;-58
2022/02/24 12:39:45;;;;;;;15.15;8.50;;;10.30;86.60;;;;;;20955425;28;20040;-59
2022/02/24 12:49:56;;;;;;;12.07;6.88;;;10.00;84.20;;;;;;20998340;28;20105;-59
2022/02/24 12:59:58;;;;;;;14.73;8.43;;;10.00;87.20;;;;;;21072400;28;20112;-59
2022/02/24 13:10:01;;;;;;;14.88;8.30;;;10.30;87.60;;;;;;21070684;28;20065;-57
2022/02/24 13:20:04;;;;;;;9.38;5.40;;;10.50;86.50;;;;;;21069527;28;20036;-59
2022/02/24 13:30:13;;;;;;;8.00;4.25;;;10.20;81.50;;;;;;21069463;28;20093;-57
2022/02/24 13:40:16;;;;;;;10.03;4.83;;;9.80;82.30;;;;;;21052091;28;20024;-58
2022/02/24 13:50:38;;;;;;;9.30;6.22;;;9.90;81.30;;;;;;21043697;28;20074;-59
2022/02/24 14:00:43;;;;;;;10.65;5.38;;;10.20;80.50;;;;;;21067760;28;20089;-54
2022/02/24 14:10:45;;;;;;;11.13;5.47;;;9.80;78.50;;;;;;21033446;28;20044;-58
2022/02/24 14:20:50;;;;;;;9.02;4.28;;;9.20;80.30;;;;;;21066276;28;20078;-57
2022/02/24 14:30:53;;;;;;;6.35;3.20;;;9.00;79.80;;;;;;21063755;28;20450;-56
2022/02/24 14:40:56;;;;;;;5.22;2.40;;;8.80;78.10;;;;;;21063090;28;20387;-59
2022/02/24 14:51:00;;;;;;;6.22;3.25;;;8.90;75.90;;;;;;21063552;28;20043;-55
2022/02/24 15:01:03;;;;;;;8.25;3.75;;;8.80;75.30;;;;;;21063204;28;20040;-57
2022/02/24 15:11:05;;;;;;;5.68;3.13;;;8.10;79.10;;;;;;21061001;28;20032;-58
2022/02/24 15:21:08;;;;;;;6.70;3.15;;;7.70;77.80;;;;;;21060139;28;20028;-57
2022/02/24 15:31:10;;;;;;;6.32;2.85;;;7.50;78.50;;;;;;21060542;28;20097;-58
2022/02/24 15:41:14;;;;;;;10.98;5.20;;;7.50;78.40;;;;;;21058897;28;20039;-59
2022/02/24 15:51:16;;;;;;;11.95;5.03;;;7.30;81.00;;;;;;20931151;28;20103;-57
2022/02/24 16:01:19;;;;;;;7.03;3.88;;;6.70;82.30;;;;;;20947571;28;20072;-56
2022/02/24 16:11:23;;;;;;;10.15;3.83;;;6.50;81.30;;;;;;20897717;28;20917;-58
2022/02/24 16:21:26;;;;;;;6.65;2.83;;;6.20;80.50;;;;;;20927952;28;20075;-53
2022/02/24 16:31:32;;;;;;;5.13;2.38;;;5.90;79.60;;;;;;21056855;28;20032;-59
2022/02/24 16:41:37;;;;;;;9.55;3.90;;;5.50;80.50;;;;;;21056401;28;20032;-58
2022/02/24 16:51:39;;;;;;;4.93;2.47;;;5.10;82.40;;;;;;21058107;28;20028;-58
2022/02/24 17:01:44;;;;;;;6.05;3.10;;;4.90;81.20;;;;;;21072480;28;20081;-57
2022/02/24 17:11:47;;;;;;;4.63;1.92;;;4.90;81.20;;;;;;21069627;28;20485;-55
2022/02/24 17:21:49;;;;;;;5.90;2.13;;;4.90;81.80;;;;;;21069619;28;20082;-57
2022/02/24 17:31:52;;;;;;;5.70;1.65;;;4.50;79.90;;;;;;21067699;28;20093;-57
2022/02/24 17:41:55;;;;;;;2.53;0.88;;;4.10;84.90;;;;;;21068060;28;20063;-57
2022/02/24 17:51:58;;;;;;;2.20;1.08;;;3.90;81.00;;;;;;21067504;28;20044;-59
2022/02/24 18:02:00;;;;;;;4.88;1.73;;;3.90;82.70;;;;;;21067364;28;20044;-58
2022/02/24 18:12:03;;;;;;;2.33;0.80;;;3.60;83.50;;;;;;21049422;28;20103;-57
2022/02/24 18:22:07;;;;;;;1.50;0.50;;;3.20;82.40;;;;;;21048386;28;20040;-57
2022/02/24 18:32:10;;;;;;;1.77;0.50;;;3.50;83.40;;;;;;21047455;28;20333;-57
2022/02/24 18:42:13;;;;;;;3.45;1.65;;;4.30;81.30;;;;;;21013391;28;20036;-59
2022/02/24 18:52:16;;;;;;;5.75;2.90;;;4.10;82.00;;;;;;21063054;28;20047;-57
2022/02/24 19:02:19;;;;;;;4.18;1.40;;;3.60;86.00;;;;;;21046106;28;20036;-59
2022/02/24 19:12:22;;;;;;;2.30;0.70;;;3.20;85.80;;;;;;21060827;28;20101;-58
2022/02/24 19:22:24;;;;;;;1.85;1.00;;;3.50;83.60;;;;;;21043295;28;20093;-57
2022/02/24 19:32:27;;;;;;;2.33;0.70;;;4.10;83.30;;;;;;21059682;28;20113;-58
2022/02/24 19:42:30;;;;;;;5.70;2.67;;;3.40;85.60;;;;;;21042400;28;20028;-59
2022/02/24 19:52:33;;;;;;;5.25;1.95;;;3.40;87.40;;;;;;21058062;28;20074;-59
2022/02/24 20:02:36;;;;;;;4.93;1.65;;;3.40;87.10;;;;;;21058016;28;20047;-56
2022/02/24 20:12:40;;;;;;;4.32;2.28;;;2.70;89.40;;;;;;21040963;28;20437;-58
2022/02/24 20:22:43;;;;;;;3.17;1.52;;;2.60;90.70;;;;;;21057520;28;20500;-55
2022/02/24 20:32:46;;;;;;;6.07;2.55;;;2.90;89.40;;;;;;21070894;28;20048;-58
2022/02/24 20:42:49;;;;;;;6.88;3.28;;;3.60;88.80;;;;;;21072839;28;20040;-55
2022/02/24 20:52:53;;;;;;;10.27;5.13;;;3.50;89.70;;;;;;21071891;28;20044;-59
2022/02/24 21:02:56;;;;;;;8.38;4.10;;;3.30;91.40;;;;;;21071256;28;20035;-58
2022/02/24 21:12:59;;;;;;;11.43;3.95;;;2.80;92.10;;;;;;21070323;28;20035;-57
2022/02/24 21:23:02;;;;;;;6.50;3.10;;;2.10;93.50;;;;;;21069516;28;20097;-57
2022/02/24 21:33:05;;;;;;;11.82;4.70;;;2.10;93.50;;;;;;21068971;28;20445;-59
2022/02/24 21:43:08;;;;;;;6.10;2.92;;;2.10;93.90;;;;;;21067735;28;20105;-59
2022/02/24 21:53:11;;;;;;;5.18;2.33;;;1.70;94.60;;;;;;21067567;28;20056;-57
2022/02/24 22:03:14;;;;;;;6.72;2.38;;;2.00;93.10;;;;;;21067029;28;20066;-56
2022/02/24 22:13:16;;;;;;;4.35;1.98;;;2.60;92.70;;;;;;21066364;28;20032;-58
2022/02/24 22:23:19;;;;;;;2.70;1.17;;;2.30;92.60;;;;;;21065645;28;20487;-58
2022/02/24 22:33:21;;;;;;;6.47;2.70;;;2.30;92.50;;;;;;21064282;28;20069;-58
2022/02/24 22:43:24;;;;;;;5.47;2.60;;;2.40;93.10;;;;;;21063424;28;20090;-58
2022/02/24 22:53:28;;;;;;;8.80;2.72;;;1.60;94.30;;;;;;21060500;28;20044;-57
2022/02/24 23:13:52;;;;;;;8.07;4.03;;;1.10;96.10;;;;;;21057807;28;20567;-58
2022/02/24 23:23:55;;;;;;;10.25;4.93;;;0.50;97.30;;;;;;21040604;28;20040;-57
2022/02/24 23:33:58;;;;;;;8.68;3.40;;;0.10;99.70;;;;;;21056654;28;20032;-58
2022/02/24 23:44:01;;;;;;;8.18;3.38;;;-0.20;99.90;;;;;;21039040;28;20036;-59
2022/02/24 23:54:04;;;;;;;8.25;2.92;;;-0.30;99.90;;;;;;21001590;28;1605106;-59
